Time;durP1;ratioP1;P1;durP2;ratioP2;P2;SDS_P1;SDS_P2;PMS_P1;PMS_P2;Temp;Humidity;BMP_temperature;BMP_pressure;BME280_temperature;BME280_humidity;BME280_pressure;Samples;Min_cycle;Max_cycle;Signal;HPM_P1;HPM_P2
2023/10/10 00:00:46;;;;;;;32.40;22.30;;;;;;;15.66;100.00;102030.88;10585270;28;20332;-72
2023/10/10 00:05:36;;;;;;;34.47;24.77;;;;;;;15.59;100.00;102030.84;10585585;28;20096;-73
2023/10/10 00:10:45;;;;;;;31.08;22.30;;;;;;;15.56;100.00;102027.66;10586315;28;20378;-74
2023/10/10 00:15:50;;;;;;;27.40;23.45;;;;;;;15.58;100.00;102026.44;10591934;28;20039;-74
2023/10/10 00:21:20;;;;;;;30.35;23.30;;;;;;;15.58;100.00;102028.31;10584770;28;20179;-74
2023/10/10 00:26:21;;;;;;;32.28;23.83;;;;;;;15.54;100.00;102022.44;10584387;28;20030;-74
2023/10/10 00:31:26;;;;;;;37.72;24.15;;;;;;;15.51;100.00;102017.38;10586571;28;20059;-73
2023/10/10 00:36:36;;;;;;;30.60;24.77;;;;;;;15.47;100.00;102016.06;10582619;28;20047;-74
2023/10/10 00:46:51;;;;;;;34.10;24.23;;;;;;;15.38;100.00;102017.31;10568370;28;20381;-73
2023/10/10 00:51:53;;;;;;;34.63;24.50;;;;;;;15.37;100.00;102004.69;10566218;28;20042;-74
2023/10/10 00:56:55;;;;;;;32.97;23.83;;;;;;;15.23;100.00;101992.03;10586442;28;20027;-73
2023/10/10 01:01:56;;;;;;;41.30;21.67;;;;;;;15.20;100.00;101997.91;10588856;28;20027;-75
2023/10/10 01:06:56;;;;;;;33.88;23.80;;;;;;;15.22;100.00;101996.66;10582172;28;20035;-72
2023/10/10 01:11:56;;;;;;;40.97;23.80;;;;;;;15.24;100.00;101988.25;10582819;28;20036;-74
2023/10/10 01:17:01;;;;;;;27.95;21.02;;;;;;;15.12;100.00;101979.78;10583793;28;20067;-75
2023/10/10 01:22:03;;;;;;;33.13;23.35;;;;;;;15.21;100.00;101994.13;10583458;28;20032;-74
2023/10/10 01:27:17;;;;;;;31.40;22.77;;;;;;;15.20;100.00;101978.78;10582822;28;20042;-73
2023/10/10 01:32:18;;;;;;;38.53;24.77;;;;;;;15.18;100.00;101968.06;10584602;28;20051;-73
2023/10/10 01:37:22;;;;;;;37.55;27.15;;;;;;;15.21;100.00;101964.09;10582017;28;20046;-75
2023/10/10 01:42:36;;;;;;;39.55;29.48;;;;;;;15.23;100.00;101962.84;10581215;28;20027;-74
2023/10/10 01:47:39;;;;;;;43.78;30.33;;;;;;;15.19;100.00;101944.34;10581803;28;20027;-73
2023/10/10 01:52:46;;;;;;;52.33;29.00;;;;;;;15.24;100.00;101956.34;10581031;28;20082;-74
2023/10/10 01:57:48;;;;;;;48.53;32.17;;;;;;;15.22;100.00;101936.63;10580923;28;20024;-74
2023/10/10 02:02:52;;;;;;;43.72;31.38;;;;;;;15.32;100.00;101939.81;10598837;27;20044;-75
2023/10/10 02:07:53;;;;;;;43.03;32.97;;;;;;;15.34;100.00;101942.31;10591090;28;20024;-74
2023/10/10 02:12:58;;;;;;;51.33;34.28;;;;;;;15.36;100.00;101942.97;10597549;28;20027;-73
2023/10/10 02:18:04;;;;;;;49.83;35.10;;;;;;;15.40;100.00;101933.31;10589684;28;20031;-73
2023/10/10 02:38:31;;;;;;;54.42;36.90;;;;;;;15.34;100.00;101917.75;10579792;28;20063;-73
2023/10/10 02:43:45;;;;;;;55.83;37.92;;;;;;;15.36;100.00;101912.94;10581436;28;20028;-75
2023/10/10 02:48:53;;;;;;;63.92;36.08;;;;;;;15.35;100.00;101905.81;10581790;28;20040;-73
2023/10/10 02:53:54;;;;;;;56.92;38.60;;;;;;;15.30;100.00;101913.75;10564722;28;20054;-73
2023/10/10 02:58:54;;;;;;;61.42;39.83;;;;;;;15.29;100.00;101906.63;10583561;28;20050;-75
2023/10/10 03:03:55;;;;;;;52.70;36.53;;;;;;;15.23;100.00;101904.72;10584235;28;20036;-73
2023/10/10 03:09:07;;;;;;;51.17;36.50;;;;;;;15.15;100.00;101902.16;10583536;28;20087;-74
2023/10/10 03:14:08;;;;;;;46.35;32.60;;;;;;;15.05;100.00;101900.63;10586225;28;20043;-75
2023/10/10 03:35:06;;;;;;;44.42;31.65;;;;;;;14.85;100.00;101888.81;10595839;28;20530;-75
2023/10/10 05:26:46;;;;;;;54.47;36.85;;;;;;;14.25;100.00;101801.19;10581935;28;20035;-74
2023/10/10 05:31:47;;;;;;;60.15;37.03;;;;;;;14.27;100.00;101793.66;10581124;28;20043;-73
2023/10/10 05:36:48;;;;;;;60.55;40.47;;;;;;;14.30;100.00;101786.97;10582741;28;20042;-74
2023/10/10 05:41:48;;;;;;;52.65;38.75;;;;;;;14.35;100.00;101792.66;10582336;28;20038;-74
2023/10/10 05:46:49;;;;;;;59.10;41.90;;;;;;;14.36;100.00;101794.34;10580006;28;20084;-73
2023/10/10 05:51:51;;;;;;;52.17;42.50;;;;;;;14.36;100.00;101794.34;10583294;28;20141;-75
2023/10/10 05:56:52;;;;;;;52.35;40.75;;;;;;;14.40;100.00;101785.56;10597662;27;20119;-74
2023/10/10 06:01:53;;;;;;;58.53;39.35;;;;;;;14.45;100.00;101774.03;10579972;28;20028;-73
2023/10/10 06:06:53;;;;;;;59.63;39.72;;;;;;;14.49;100.00;101775.34;10582788;28;20024;-75
2023/10/10 06:11:54;;;;;;;63.80;38.28;;;;;;;14.50;100.00;101771.56;10581285;28;20043;-73
2023/10/10 06:16:55;;;;;;;59.92;41.05;;;;;;;14.53;100.00;101771.19;10596357;27;20552;-73
2023/10/10 06:22:00;;;;;;;61.35;39.67;;;;;;;14.56;100.00;101778.13;10579647;28;20046;-74
2023/10/10 06:27:02;;;;;;;63.20;41.55;;;;;;;14.59;100.00;101762.22;10580195;28;20039;-73
2023/10/10 06:32:03;;;;;;;62.67;44.47;;;;;;;14.73;100.00;101767.72;10578884;28;20058;-75
2023/10/10 06:37:07;;;;;;;62.50;40.75;;;;;;;14.84;100.00;101778.88;10579698;28;20028;-76
2023/10/10 06:42:08;;;;;;;60.10;39.75;;;;;;;14.95;100.00;101772.00;10580049;28;20032;-74
2023/10/10 06:47:08;;;;;;;62.70;41.58;;;;;;;15.02;100.00;101761.94;10577958;28;20385;-74
2023/10/10 06:52:18;;;;;;;64.05;42.92;;;;;;;15.22;100.00;101778.38;10580293;28;20199;-75
2023/10/10 06:57:19;;;;;;;62.45;41.15;;;;;;;15.34;100.00;101781.31;10578639;27;20034;-74
2023/10/10 07:02:20;;;;;;;54.92;41.30;;;;;;;15.48;100.00;101780.28;10579220;28;20027;-74
2023/10/10 07:07:21;;;;;;;58.47;39.70;;;;;;;15.63;100.00;101771.88;10587142;28;20067;-73
2023/10/10 07:12:21;;;;;;;59.38;39.78;;;;;;;15.84;100.00;101765.41;10586878;27;20453;-72
2023/10/10 07:17:27;;;;;;;60.83;43.00;;;;;;;16.09;100.00;101759.28;10588102;28;20028;-75
2023/10/10 07:22:28;;;;;;;48.65;41.63;;;;;;;16.45;100.00;101773.25;10587673;28;20454;-74
2023/10/10 07:27:30;;;;;;;57.50;40.42;;;;;;;16.45;100.00;101773.25;10587244;28;20100;-74
2023/10/10 07:32:31;;;;;;;59.78;40.30;;;;;;;16.47;100.00;101773.06;10604304;27;20059;-75
2023/10/10 07:37:31;;;;;;;62.28;39.78;;;;;;;16.50;100.00;101768.00;10587959;28;20505;-75
2023/10/10 07:42:34;;;;;;;44.33;36.05;;;;;;;16.65;100.00;101777.81;10586258;28;20479;-74
2023/10/10 07:48:31;;;;;;;69.43;41.50;;;;;;;16.85;100.00;101777.78;10586560;28;20040;-74
2023/10/10 07:52:55;;;;;;;59.55;38.83;;;;;;;17.24;100.00;101763.03;10585858;28;20447;-74
2023/10/10 07:57:56;;;;;;;49.30;38.72;;;;;;;17.81;100.00;101777.56;10586763;28;20039;-76
2023/10/10 08:02:56;;;;;;;37.22;30.92;;;;;;;18.29;100.00;101767.84;10587613;27;20066;-74
2023/10/10 08:07:56;;;;;;;40.15;31.50;;;;;;;18.33;100.00;101769.88;10586525;28;20087;-74
2023/10/10 08:12:57;;;;;;;52.78;33.33;;;;;;;18.34;100.00;101771.53;10586641;28;20549;-73
2023/10/10 08:17:58;;;;;;;46.05;31.30;;;;;;;18.68;100.00;101772.00;10586036;28;20485;-74
2023/10/10 08:23:01;;;;;;;46.15;30.98;;;;;;;19.19;100.00;101775.38;10586416;28;20059;-75
2023/10/10 08:28:01;;;;;;;51.70;32.42;;;;;;;20.04;100.00;101774.19;10586001;28;20119;-73
2023/10/10 08:33:02;;;;;;;44.47;29.13;;;;;;;20.78;100.00;101777.25;10602592;27;20032;-75
2023/10/10 08:38:03;;;;;;;44.38;28.38;;;;;;;20.78;100.00;101774.50;10601087;27;20538;-75
2023/10/10 08:43:04;;;;;;;35.53;25.83;;;;;;;20.69;100.00;101781.47;10584004;28;20039;-75
2023/10/10 08:48:09;;;;;;;36.45;24.58;;;;;;;20.06;100.00;101783.91;10584157;28;20122;-74
2023/10/10 08:53:12;;;;;;;33.33;23.23;;;;;;;19.97;100.00;101760.59;10583802;28;20113;-73
2023/10/10 08:58:12;;;;;;;31.83;23.40;;;;;;;20.83;100.00;101775.41;10583340;28;20024;-74
2023/10/10 09:03:13;;;;;;;31.60;24.48;;;;;;;21.64;100.00;101774.44;10585305;28;20118;-75
2023/10/10 09:08:17;;;;;;;36.17;23.23;;;;;;;21.71;100.00;101775.13;10584630;27;20110;-73
2023/10/10 09:13:17;;;;;;;37.08;24.02;;;;;;;22.14;100.00;101765.28;10584018;28;20035;-74
2023/10/10 09:18:22;;;;;;;35.97;22.95;;;;;;;22.31;100.00;101760.59;10584612;28;20027;-74
2023/10/10 09:23:26;;;;;;;28.58;21.55;;;;;;;22.29;100.00;101768.28;10565614;28;20041;-74
2023/10/10 09:28:41;;;;;;;31.58;23.85;;;;;;;22.18;100.00;101766.50;10582221;28;20133;-73
2023/10/10 09:33:45;;;;;;;27.42;21.98;;;;;;;22.31;100.00;101782.69;10583178;28;20418;-73
2023/10/10 09:38:53;;;;;;;30.23;23.38;;;;;;;22.01;100.00;101775.56;10585561;28;20066;-74
2023/10/10 09:49:42;;;;;;;35.92;21.45;;;;;;;21.44;100.00;101780.44;10569114;28;20071;-74
2023/10/10 09:54:44;;;;;;;25.52;21.92;;;;;;;21.91;100.00;101760.81;10584275;28;20462;-75
2023/10/10 09:59:48;;;;;;;21.73;19.27;;;;;;;23.37;100.00;101774.00;10565550;28;20030;-72
2023/10/10 10:04:53;;;;;;;27.45;21.27;;;;;;;24.37;100.00;101770.59;10583392;28;20100;-74
2023/10/10 10:09:59;;;;;;;24.63;18.27;;;;;;;24.92;100.00;101769.19;10581482;28;20034;-76
2023/10/10 10:15:24;;;;;;;30.73;21.05;;;;;;;25.16;100.00;101758.47;10579771;28;20022;-74
2023/10/10 10:20:33;;;;;;;26.67;19.90;;;;;;;24.77;100.00;101764.44;10580705;28;20072;-74
2023/10/10 10:25:33;;;;;;;23.58;15.52;;;;;;;25.06;100.00;101773.09;10565568;27;20027;-75
2023/10/10 10:30:46;;;;;;;21.50;18.17;;;;;;;25.52;100.00;101764.03;10580859;28;20055;-74
2023/10/10 10:36:06;;;;;;;18.83;16.80;;;;;;;25.51;100.00;101777.06;10579650;28;20066;-74
2023/10/10 10:41:17;;;;;;;24.42;18.27;;;;;;;25.80;99.00;101773.72;10581883;28;20028;-73
2023/10/10 10:46:27;;;;;;;23.95;19.38;;;;;;;25.96;99.39;101769.84;10564302;28;20085;-74
2023/10/10 10:51:43;;;;;;;21.35;17.52;;;;;;;26.48;99.89;101761.38;10580965;28;20046;-74
2023/10/10 10:56:44;;;;;;;30.17;16.88;;;;;;;26.15;90.51;101749.84;10580047;28;20039;-72
2023/10/10 11:01:57;;;;;;;22.23;16.35;;;;;;;25.81;84.41;101760.72;10578068;28;20039;-73
2023/10/10 11:07:07;;;;;;;25.58;17.10;;;;;;;25.77;89.85;101751.25;10580129;28;20110;-74
2023/10/10 11:12:08;;;;;;;30.90;18.25;;;;;;;25.37;87.26;101744.63;10563762;28;20413;-74
2023/10/10 11:17:17;;;;;;;19.42;16.17;;;;;;;25.73;93.27;101728.78;10595617;28;20069;-73
2023/10/10 11:22:38;;;;;;;17.00;15.38;;;;;;;26.30;88.05;101723.97;10580039;28;20047;-75
2023/10/10 11:27:43;;;;;;;20.75;16.88;;;;;;;26.74;85.71;101712.09;10564467;28;20032;-75
2023/10/10 11:32:46;;;;;;;17.63;14.60;;;;;;;27.03;82.96;101709.44;10580982;28;20047;-74
2023/10/10 11:38:35;;;;;;;17.15;14.45;;;;;;;27.35;81.55;101707.00;10579105;28;20039;-74
2023/10/10 11:43:17;;;;;;;17.58;14.07;;;;;;;27.11;74.56;101692.97;10551288;28;20397;-72
2023/10/10 11:48:17;;;;;;;21.73;14.73;;;;;;;27.41;78.44;101685.53;10578700;28;20047;-75
2023/10/10 11:53:19;;;;;;;14.38;12.55;;;;;;;27.03;66.56;101679.69;10585794;28;20036;-73
2023/10/10 11:58:21;;;;;;;15.07;12.25;;;;;;;27.17;74.40;101687.41;10586176;28;20028;-75
2023/10/10 12:03:34;;;;;;;18.55;14.15;;;;;;;26.74;70.54;101684.31;10603131;27;20028;-73
2023/10/10 12:08:37;;;;;;;17.52;12.38;;;;;;;26.52;68.90;101684.75;10587298;28;20116;-75
2023/10/10 12:13:37;;;;;;;13.57;12.10;;;;;;;26.77;68.71;101669.84;10586707;28;20031;-73
2023/10/10 12:18:49;;;;;;;11.60;10.43;;;;;;;27.28;72.38;101675.06;10586965;28;20114;-74
2023/10/10 12:23:52;;;;;;;12.43;10.57;;;;;;;27.73;73.42;101661.84;10586136;28;20043;-75
2023/10/10 12:28:52;;;;;;;12.57;10.63;;;;;;;26.77;72.21;101667.94;10586796;28;20051;-75
2023/10/10 12:33:53;;;;;;;19.75;11.82;;;;;;;26.44;67.59;101667.50;10585631;28;20036;-75
2023/10/10 12:38:55;;;;;;;14.05;10.93;;;;;;;26.31;73.11;101654.25;10586292;28;20089;-74
2023/10/10 12:43:55;;;;;;;13.65;10.48;;;;;;;26.40;69.68;101649.78;10585580;28;20118;-75
2023/10/10 12:48:56;;;;;;;13.52;9.70;;;;;;;26.40;65.70;101646.16;10583898;28;20119;-75
2023/10/10 12:54:05;;;;;;;19.90;8.82;;;;;;;26.67;64.08;101646.59;10584210;28;20042;-74
2023/10/10 12:59:07;;;;;;;9.40;7.22;;;;;;;26.73;62.08;101652.94;10567611;28;20047;-74
2023/10/10 13:04:08;;;;;;;16.00;7.25;;;;;;;26.81;62.36;101643.16;10583829;28;20036;-73
2023/10/10 13:09:08;;;;;;;21.88;6.05;;;;;;;26.13;59.73;101652.13;10583369;28;20039;-74
2023/10/10 13:14:09;;;;;;;11.98;6.90;;;;;;;26.06;59.06;101646.88;10564712;28;20032;-76
2023/10/10 13:19:11;;;;;;;8.50;5.88;;;;;;;25.57;61.83;101633.69;10583252;28;20063;-73
2023/10/10 13:24:13;;;;;;;11.40;5.93;;;;;;;24.69;62.39;101639.47;10581865;28;20027;-75
2023/10/10 13:29:16;;;;;;;12.02;5.75;;;;;;;23.98;67.09;101638.13;10582407;28;20201;-75
2023/10/10 13:34:22;;;;;;;10.50;6.65;;;;;;;23.00;70.51;101626.66;10582613;28;20070;-75
2023/10/10 13:39:33;;;;;;;5.45;5.05;;;;;;;22.51;74.41;101635.81;10582163;28;20036;-74
2023/10/10 13:44:35;;;;;;;12.23;5.53;;;;;;;22.72;77.59;101632.19;10549290;28;20403;-73
2023/10/10 13:49:44;;;;;;;6.15;5.60;;;;;;;23.77;77.68;101631.66;10581400;28;20123;-74
2023/10/10 13:54:44;;;;;;;14.05;5.20;;;;;;;24.45;75.68;101626.16;10598696;27;20090;-74
2023/10/10 13:59:49;;;;;;;7.97;6.35;;;;;;;24.65;68.21;101613.44;10580333;28;20082;-75
2023/10/10 14:04:50;;;;;;;11.25;5.85;;;;;;;24.43;67.20;101617.28;10580477;28;20051;-74
2023/10/10 14:09:51;;;;;;;8.77;5.32;;;;;;;24.02;64.65;101613.50;10581139;28;20390;-73
2023/10/10 14:14:51;;;;;;;5.55;4.32;;;;;;;24.06;68.39;101607.19;10595991;27;20059;-72
2023/10/10 14:19:52;;;;;;;11.73;5.22;;;;;;;24.08;59.26;101601.34;10581238;28;20039;-75
2023/10/10 14:24:53;;;;;;;8.70;4.65;;;;;;;23.75;58.39;101591.56;10581280;28;20032;-74
2023/10/10 14:29:53;;;;;;;7.13;4.20;;;;;;;23.84;57.84;101588.00;10579503;28;20052;-73
2023/10/10 14:34:53;;;;;;;6.63;4.80;;;;;;;24.12;59.80;101578.44;10580789;28;20031;-75
2023/10/10 14:39:55;;;;;;;6.70;4.05;;;;;;;24.38;59.37;101570.19;10581252;28;20031;-74
2023/10/10 14:44:55;;;;;;;7.47;4.45;;;;;;;24.10;61.33;101557.66;10579588;28;20036;-73
2023/10/10 14:50:06;;;;;;;14.90;5.35;;;;;;;23.62;62.87;101548.59;10580725;28;20028;-73
2023/10/10 14:55:23;;;;;;;12.98;5.05;;;;;;;23.35;64.23;101549.53;10578396;28;20058;-73
2023/10/10 15:00:29;;;;;;;8.98;6.05;;;;;;;22.94;64.76;101543.75;10563949;28;20047;-74
2023/10/10 15:05:32;;;;;;;;;;;;;;;22.88;69.22;101541.19;10580719;28;20028;-72
2023/10/10 15:10:37;;;;;;;10.77;6.35;;;;;;;22.81;71.60;101527.59;10579160;28;19923;-74
2023/10/10 15:15:40;;;;;;;17.77;8.98;;;;;;;22.65;73.74;101525.81;10579986;28;20035;-74
2023/10/10 15:20:45;;;;;;;8.07;6.32;;;;;;;22.50;75.71;101521.00;10579460;28;20462;-74
2023/10/10 15:25:55;;;;;;;11.00;8.60;;;;;;;22.34;77.67;101505.41;10564344;28;20042;-75
2023/10/10 15:30:57;;;;;;;18.52;8.43;;;;;;;22.11;80.17;101512.00;10589181;28;20375;-75
2023/10/10 15:35:57;;;;;;;19.13;8.30;;;;;;;22.04;81.73;101496.50;10589203;28;20035;-75
2023/10/10 15:41:05;;;;;;;10.27;7.95;;;;;;;21.99;83.28;101482.69;10587126;28;20043;-74
2023/10/10 15:46:07;;;;;;;14.60;9.52;;;;;;;21.94;84.03;101485.38;10570202;28;20096;-76
2023/10/10 15:51:08;;;;;;;13.73;9.70;;;;;;;21.77;84.71;101477.19;10586455;28;20039;-74
2023/10/10 15:56:20;;;;;;;16.65;10.10;;;;;;;21.60;86.67;101468.16;10587215;28;20035;-74
2023/10/10 16:01:30;;;;;;;17.33;11.05;;;;;;;21.61;87.11;101466.25;10584688;28;20032;-74
2023/10/10 16:06:34;;;;;;;15.73;9.35;;;;;;;21.46;87.90;101469.66;10584818;28;20031;-75
2023/10/10 16:11:34;;;;;;;28.63;9.27;;;;;;;21.28;90.41;101471.59;10585572;28;20435;-73
2023/10/10 16:16:35;;;;;;;10.63;8.25;;;;;;;21.22;89.67;101466.25;10568808;28;20059;-76
2023/10/10 16:21:38;;;;;;;13.07;8.45;;;;;;;21.13;88.57;101454.88;10584571;28;20043;-74
2023/10/10 16:26:40;;;;;;;10.25;6.57;;;;;;;21.05;86.73;101442.34;10584704;28;20092;-74
2023/10/10 16:31:43;;;;;;;6.60;5.82;;;;;;;21.02;86.86;101453.03;10584082;28;20101;-73
2023/10/10 16:36:45;;;;;;;6.75;5.53;;;;;;;20.90;85.69;101450.41;10585546;28;20109;-73
2023/10/10 16:41:47;;;;;;;10.63;6.75;;;;;;;20.83;83.71;101442.31;10589179;28;20046;-74
2023/10/10 16:46:49;;;;;;;5.80;5.20;;;;;;;20.80;82.28;101442.81;10590987;27;20036;-72
2023/10/10 16:51:50;;;;;;;5.72;5.20;;;;;;;20.65;79.78;101434.34;10587549;28;20062;-75
2023/10/10 16:56:57;;;;;;;8.75;4.80;;;;;;;20.64;79.11;101428.03;10584704;28;20125;-74
2023/10/10 17:01:57;;;;;;;10.13;4.63;;;;;;;20.44;76.50;101413.91;10584484;28;20099;-74
2023/10/10 17:06:59;;;;;;;13.13;5.22;;;;;;;20.43;76.24;101412.25;10582758;28;20471;-73
2023/10/10 17:12:02;;;;;;;7.20;5.05;;;;;;;20.28;75.77;101417.47;10582754;28;20028;-74
2023/10/10 17:17:03;;;;;;;12.52;5.28;;;;;;;20.18;76.21;101415.41;10584046;28;20100;-74
2023/10/10 17:22:03;;;;;;;6.97;5.22;;;;;;;20.02;77.28;101414.31;10582717;28;20080;-75
2023/10/10 17:27:06;;;;;;;4.50;3.95;;;;;;;19.92;78.54;101425.13;10582263;28;20028;-74
2023/10/10 17:32:08;;;;;;;10.95;4.25;;;;;;;19.68;78.61;101413.38;10583897;28;20477;-73
2023/10/10 17:37:11;;;;;;;7.75;5.15;;;;;;;19.65;79.67;101411.97;10583365;28;20028;-72
2023/10/10 17:42:11;;;;;;;5.22;4.32;;;;;;;19.56;80.30;101413.44;10599078;27;20051;-73
2023/10/10 17:47:15;;;;;;;10.43;5.72;;;;;;;19.40;80.66;101397.69;10582662;28;20070;-72
2023/10/10 17:52:15;;;;;;;8.00;6.22;;;;;;;19.38;81.44;101388.88;10581424;28;20042;-73
2023/10/10 17:57:16;;;;;;;9.93;5.30;;;;;;;19.35;81.43;101379.22;10582651;28;20122;-73
2023/10/10 18:02:22;;;;;;;8.32;4.55;;;;;;;19.32;80.91;101379.72;10582253;28;20499;-75
2023/10/10 18:07:22;;;;;;;11.73;4.90;;;;;;;19.41;78.41;101391.16;10581753;28;20038;-73
2023/10/10 18:12:23;;;;;;;7.38;4.50;;;;;;;19.38;77.70;101386.16;10581789;28;20146;-73
2023/10/10 18:17:23;;;;;;;12.73;4.35;;;;;;;19.39;76.21;101396.03;10597262;27;20042;-73
2023/10/10 18:22:25;;;;;;;15.27;4.82;;;;;;;19.36;76.05;101402.03;10581236;28;20032;-74
2023/10/10 18:27:25;;;;;;;11.63;4.95;;;;;;;19.30;76.15;101403.81;10581831;28;20096;-74
2023/10/10 18:32:27;;;;;;;9.45;5.10;;;;;;;19.22;77.19;101398.72;10580283;28;20051;-74
2023/10/10 18:37:28;;;;;;;7.18;4.15;;;;;;;19.13;77.97;101400.19;10581001;28;20063;-78
2023/10/10 18:42:28;;;;;;;9.48;4.82;;;;;;;19.05;76.57;101393.16;10580944;28;20059;-74
2023/10/10 18:47:31;;;;;;;6.22;4.28;;;;;;;18.98;76.00;101392.44;10580905;28;20035;-72
2023/10/10 18:52:33;;;;;;;12.25;4.65;;;;;;;18.96;76.06;101402.84;10598943;27;20038;-75
2023/10/10 18:57:35;;;;;;;6.38;4.18;;;;;;;18.91;75.46;101398.06;10580201;28;20038;-78
2023/10/10 19:02:35;;;;;;;9.02;4.15;;;;;;;18.94;75.32;101399.50;10578248;28;20123;-72
2023/10/10 19:07:36;;;;;;;6.60;4.57;;;;;;;18.92;74.49;101393.41;10579380;28;20035;-75
2023/10/10 19:12:39;;;;;;;3.65;3.35;;;;;;;18.87;73.33;101396.06;10596502;28;20035;-78
2023/10/10 19:17:43;;;;;;;5.15;4.60;;;;;;;18.84;73.66;101410.25;10580046;28;20032;-74
2023/10/10 19:22:46;;;;;;;9.23;4.78;;;;;;;18.76;75.58;101405.94;10578426;28;20485;-76
2023/10/10 19:27:53;;;;;;;10.35;4.95;;;;;;;18.50;86.54;101396.25;10579154;28;20027;-76
2023/10/10 19:32:54;;;;;;;9.93;6.00;;;;;;;18.50;94.93;101401.75;10579445;28;20052;-76
2023/10/10 19:37:57;;;;;;;13.95;7.22;;;;;;;18.49;100.00;101403.66;10578639;28;20048;-73
2023/10/10 19:42:59;;;;;;;13.70;6.45;;;;;;;18.35;100.00;101407.72;10579923;28;20408;-72
2023/10/10 19:48:03;;;;;;;14.77;7.82;;;;;;;18.21;100.00;101393.38;10577545;28;20034;-73
2023/10/10 19:53:03;;;;;;;17.83;7.85;;;;;;;18.03;100.00;101383.34;10578312;28;20453;-71
2023/10/10 19:58:09;;;;;;;17.17;8.35;;;;;;;17.88;100.00;101389.28;10578931;28;20118;-71
2023/10/10 20:03:11;;;;;;;12.25;8.50;;;;;;;17.80;100.00;101386.84;10546032;28;20043;-73
2023/10/10 20:08:13;;;;;;;30.27;10.45;;;;;;;17.70;100.00;101392.03;10560561;28;20035;-72
2023/10/10 20:13:13;;;;;;;19.38;9.80;;;;;;;17.62;100.00;101386.91;10581895;28;20059;-71
2023/10/10 20:18:15;;;;;;;19.98;9.05;;;;;;;17.50;100.00;101396.97;10584695;28;20042;-74
2023/10/10 20:23:15;;;;;;;15.10;8.15;;;;;;;17.43;100.00;101389.66;10587503;28;20467;-73
2023/10/10 20:28:15;;;;;;;19.73;11.10;;;;;;;17.29;100.00;101399.09;10603816;27;20059;-74
2023/10/10 20:33:16;;;;;;;12.55;9.27;;;;;;;17.18;100.00;101388.94;10587129;28;20108;-73
2023/10/10 20:38:18;;;;;;;22.17;11.38;;;;;;;17.12;100.00;101403.53;10586651;28;20119;-73
2023/10/10 20:43:21;;;;;;;18.70;12.98;;;;;;;17.07;100.00;101392.44;10584547;28;20092;-75
2023/10/10 20:48:21;;;;;;;18.85;12.27;;;;;;;16.96;100.00;101408.56;10584116;28;20084;-73
2023/10/10 20:53:22;;;;;;;21.83;11.68;;;;;;;16.96;100.00;101396.78;10583603;28;20039;-75
2023/10/10 20:58:22;;;;;;;19.42;12.00;;;;;;;16.94;100.00;101397.03;10566367;28;20086;-76
2023/10/10 21:03:22;;;;;;;27.05;14.98;;;;;;;16.94;100.00;101394.28;10600211;27;20134;-74
2023/10/10 21:08:25;;;;;;;19.85;12.63;;;;;;;17.00;100.00;101380.75;10582777;28;20127;-73
2023/10/10 21:13:26;;;;;;;30.00;13.00;;;;;;;16.92;100.00;101385.47;10582229;28;20039;-72
2023/10/10 21:18:26;;;;;;;23.58;14.13;;;;;;;16.95;100.00;101387.75;10582428;28;20043;-72
2023/10/10 21:23:27;;;;;;;30.60;14.38;;;;;;;16.89;100.00;101398.75;10581185;28;20031;-72
2023/10/10 21:28:27;;;;;;;23.55;13.57;;;;;;;16.91;100.00;101391.16;10583132;28;20415;-72
2023/10/10 21:33:28;;;;;;;27.45;14.77;;;;;;;16.90;100.00;101405.91;10582452;28;20129;-74
2023/10/10 21:38:28;;;;;;;18.70;15.75;;;;;;;16.86;100.00;101397.31;10599202;27;20394;-73
2023/10/10 21:43:29;;;;;;;30.23;15.00;;;;;;;16.94;100.00;101380.59;10584786;28;20107;-73
2023/10/10 21:48:29;;;;;;;24.95;15.35;;;;;;;16.89;100.00;101382.34;10581470;28;20028;-74
2023/10/10 21:53:30;;;;;;;27.02;15.20;;;;;;;16.94;100.00;101399.75;10583555;28;20039;-74
2023/10/10 21:58:30;;;;;;;30.20;15.32;;;;;;;16.93;100.00;101397.22;10582937;28;20038;-74
2023/10/10 22:03:32;;;;;;;32.63;14.57;;;;;;;16.88;100.00;101397.94;10581946;28;20062;-74
2023/10/10 22:08:35;;;;;;;37.53;16.25;;;;;;;16.82;100.00;101385.16;10580824;28;20110;-74
2023/10/10 22:13:36;;;;;;;24.10;15.82;;;;;;;16.81;100.00;101380.72;10598033;27;20093;-74
2023/10/10 22:18:38;;;;;;;27.85;15.55;;;;;;;16.90;100.00;101397.69;10582747;28;20032;-74
2023/10/10 22:23:38;;;;;;;36.10;15.82;;;;;;;16.84;100.00;101380.28;10582119;28;20437;-75
2023/10/10 22:28:38;;;;;;;32.75;15.35;;;;;;;16.80;100.00;101381.81;10581439;28;20087;-74
2023/10/10 22:33:40;;;;;;;35.97;16.27;;;;;;;16.77;100.00;101376.78;10579321;28;20086;-73
2023/10/10 22:38:44;;;;;;;27.08;14.30;;;;;;;16.74;100.00;101371.75;10582258;28;20176;-75
2023/10/10 22:43:45;;;;;;;38.72;14.88;;;;;;;16.76;100.00;101369.66;10582895;28;20067;-75
2023/10/10 22:48:45;;;;;;;26.60;13.02;;;;;;;16.71;100.00;101373.03;10580739;28;20418;-74
2023/10/10 22:53:46;;;;;;;32.17;14.55;;;;;;;16.70;100.00;101365.06;10585082;28;20032;-76
2023/10/10 22:58:46;;;;;;;24.88;13.52;;;;;;;16.68;100.00;101358.97;10581196;28;20473;-75
2023/10/10 23:03:47;;;;;;;28.95;14.05;;;;;;;16.76;100.00;101360.63;10581389;28;20063;-73
2023/10/10 23:08:48;;;;;;;25.17;14.32;;;;;;;16.77;100.00;101356.81;10580677;28;20042;-74
2023/10/10 23:13:49;;;;;;;29.05;13.88;;;;;;;16.81;100.00;101367.06;10562196;28;20450;-77
2023/10/10 23:18:49;;;;;;;29.90;14.95;;;;;;;16.73;100.00;101350.94;10581068;28;20035;-77
2023/10/10 23:23:49;;;;;;;23.85;13.50;;;;;;;16.83;100.00;101358.63;10581090;28;20047;-73
2023/10/10 23:28:52;;;;;;;38.75;14.45;;;;;;;16.87;100.00;101360.69;10579778;28;20503;-75
2023/10/10 23:33:52;;;;;;;26.00;11.68;;;;;;;16.90;100.00;101362.13;10580775;28;20383;-74
2023/10/10 23:38:55;;;;;;;19.17;14.35;;;;;;;16.89;100.00;101355.00;10579584;28;20035;-74
2023/10/10 23:43:57;;;;;;;31.45;13.75;;;;;;;16.94;100.00;101355.13;10597181;28;20050;-73
2023/10/10 23:48:57;;;;;;;26.67;12.35;;;;;;;16.92;100.00;101352.63;10586448;28;20035;-75
2023/10/10 23:53:58;;;;;;;25.70;15.52;;;;;;;16.92;100.00;101344.44;10588162;28;20066;-74
2023/10/10 23:59:00;;;;;;;28.88;13.52;;;;;;;17.00;100.00;101364.31;10589763;28;20036;-76
